Arcata, CA (95519)

2:30 PM PST on January 27, 2015 (GMT -0800)
APRSWXNET Arcata CA US | Change Station
CLOSE
Current Station
Personal Weather Station
Location: Arcata, CA
Elevation: 183 ft
Nearby Weather Stations

Elev 183 ft 40.88 °N, 124.08 °W | Updated 30 minutes ago

Partly Cloudy
Partly Cloudy
56 °F
Feels Like 56 °F
N
0
Wind Variable Wind from SSE
Gusts 2.0 mph

Today
High -- | Low -- °F
--% Chance of Precip.
Yesterday
High -- | Low -- °F
Precip. -- in
7:31 AM 5:27 PM
First Quarter, 58% visible
Pressure 30.19 in
Visibility 10.0 miles
Clouds Scattered Clouds 1600 ft
Dew Point 51 °F
Humidity 83%
Rainfall 0.12 in
Snow Depth Not available.
UV 2 out of 12
Pollen 5.50 out of 12
Air Quality Not available.
Flu Activity Not available.
METAR KACV 272153Z AUTO 22004KT 10SM SCT016 13/09 A3017 RMK AO2 SLP222 T01330094

More Conditions Fewer Conditions

Pressure 30.19 in
Visibility 10.0 miles
Clouds Scattered Clouds 1600 ft
Dew Point 51 °F
Humidity 83%
Rainfall 0.12 in
Snow Depth Not available.
UV 2 out of 12
Pollen 5.50 out of 12
Air Quality Not available.
Flu Activity Not available.
METAR KACV 272153Z AUTO 22004KT 10SM SCT016 13/09 A3017 RMK AO2 SLP222 T01330094

More Conditions Fewer Conditions

10-Day Weather Forecast

Almanac

Astronomy

Jan. 27, 2015 Rise Set
Actual Time
Civil Twilight
Nautical Twilight
Astronomical Twilight
Moon
Length of Visible Light
Length of Day
Tomorrow will be .
, % of the Moon is Illuminated

Today's Extremes

State Highs State Lows

Community

WunderPhotos

Upload Photos

1,790,952 photos uploaded!

WunderBlogs® & News

Nearby

Air Quality

  Air Quality AQ Index Pollutant
Not available.

Snow Depth

Station Depth Elevation

Earthquake Activity

City Distance Mag. Time & Date
Minimum magnitude displayed is 2.5.

Coastal Water Temperatures

Place Temperature

Nearby Weather Stations